메인 페이지
METAR-TAF:

METAR-TAF

공항 :

로턴, 오클라호마, 미국

위도: 34-33-27N, 경도: 098-25-00W, 고도: 338m

현재 날씨관측

예보는 27분 전, 08:53시(UTC)에 발표되었습니다.
7kt
온도 14°C
습도 72%
기압 1017 hPa
시정: 16.1km
고도 1900ft 상공 흐림

METAR: KLAW 200853Z AUTO 08007KT 10SM OVC019 14/09 A3004 RMK AO2 SLP170 T01390089 56003

시각: 04:20 (09:20 UTC)

예보

예보는 4 시간 0분 전, 05:20시(UTC)에 발표되었습니다.
예보 대상 시간: 20일 06시부터 21일 06시까지 (UTC)
4kt
시정: 10km
고도 2500ft 상공 구름 많음
일시적
20일 10시부터 20일 14시까지 (UTC)
시정: 6.4km
고도 1500ft 상공 흐림
약한이슬비, 박무
20일 1400시부터 (UTC)
동남동9kt
시정: 10km
고도 1500ft 상공 흐림
20일 2000시부터 (UTC)
남남동13kt
시정: 10km
고도 2500ft 상공 구름 많음
20일 2300시부터 (UTC)
13kt, 순간 최대 풍속 19kt
시정: 10km
고도 4000ft 상공 구름 많음

TAF: KLAW 200520Z 2006/2106 08004KT P6SM BKN025 TEMPO 2010/2014 4SM -DZ BR OVC015 FM201400 12009KT P6SM OVC015 FM202000 16013KT P6SM BKN025 FM202300 17013G19KT P6SM BKN040

4,000개 이상의 공항 관측 자료 및 예보 (METAR 및 TAF 보고).

지도상에서 검색 가능한 기상관측소가 노란 점과 빨간 점으로 표시되어 있습니다.

기상관측소 명을 보려면 표시 위로 마우스를 이동하세요.

날씨 관측과 예보를 보려면 클릭하세요.

지도 변경 : 확대하려면 엑스 표시가 있는 녹색 버튼, 축소하려면 빼기 표시가 있는 녹색 버튼, 다음 페이지의 지도를 보려면 녹색 화살표를 클릭하세요.


METAR-TAF: